Time;durP1;ratioP1;P1;durP2;ratioP2;P2;SDS_P1;SDS_P2;PMS_P1;PMS_P2;Temp;Humidity;BMP_temperature;BMP_pressure;BME280_temperature;BME280_humidity;BME280_pressure;Samples;Min_cycle;Max_cycle;Signal;HPM_P1;HPM_P2
2023/12/15 00:00:18;;;;;;;40.60;25.80;;;;;;;2.99;100.00;99367.48;109566;1251;67235;-74
2023/12/15 00:03:05;;;;;;;43.50;25.60;;;;;;;2.97;100.00;99371.06;109548;1251;61652;-75
2023/12/15 00:05:32;;;;;;;44.20;25.70;;;;;;;2.95;100.00;99376.21;109566;1251;63726;-73
2023/12/15 00:07:59;;;;;;;40.10;24.70;;;;;;;2.94;100.00;99381.14;109357;1251;59011;-74
2023/12/15 00:10:26;;;;;;;38.10;24.30;;;;;;;2.94;100.00;99385.36;109552;1251;58946;-74
2023/12/15 00:12:52;;;;;;;44.40;26.10;;;;;;;2.93;100.00;99390.66;109611;1251;67000;-74
2023/12/15 00:15:19;;;;;;;41.60;26.40;;;;;;;2.93;100.00;99392.08;109647;1251;60974;-74
2023/12/15 00:17:45;;;;;;;42.60;25.00;;;;;;;2.92;100.00;99398.21;109531;1250;64089;-73
2023/12/15 00:20:12;;;;;;;48.70;28.20;;;;;;;2.92;100.00;99402.27;109514;1251;59203;-74
2023/12/15 00:22:38;;;;;;;46.10;26.70;;;;;;;2.89;100.00;99400.94;109286;1251;58965;-73
2023/12/15 00:25:05;;;;;;;50.30;26.80;;;;;;;2.88;100.00;99405.73;109567;1250;67150;-75
2023/12/15 00:27:32;;;;;;;53.70;28.20;;;;;;;2.86;100.00;99411.23;109564;1251;61022;-74
2023/12/15 00:29:58;;;;;;;65.60;30.60;;;;;;;2.84;100.00;99416.89;109523;1251;64033;-74
2023/12/15 00:32:25;;;;;;;52.80;29.10;;;;;;;2.84;100.00;99421.64;109568;1251;58967;-74
2023/12/15 00:34:52;;;;;;;52.80;30.20;;;;;;;2.80;100.00;99427.02;109557;1251;59773;-74
2023/12/15 00:37:20;;;;;;;48.50;28.50;;;;;;;2.75;100.00;99434.54;109608;1251;64787;-75
2023/12/15 00:39:48;;;;;;;53.60;30.40;;;;;;;2.70;100.00;99439.23;109585;1251;60048;-74
2023/12/15 00:42:15;;;;;;;47.50;25.70;;;;;;;2.68;100.00;99446.30;109529;1251;65298;-74
2023/12/15 00:44:41;;;;;;;58.40;31.20;;;;;;;2.62;100.00;99451.36;109335;1251;59298;-73
2023/12/15 00:47:08;;;;;;;49.10;29.20;;;;;;;2.58;100.00;99458.30;109574;1251;59889;-74
2023/12/15 00:49:35;;;;;;;48.60;28.70;;;;;;;2.56;100.00;99463.61;109538;1251;67095;-73
2023/12/15 00:52:01;;;;;;;69.10;37.10;;;;;;;2.55;100.00;99469.10;109575;1251;60144;-74
2023/12/15 00:54:28;;;;;;;58.10;31.40;;;;;;;2.53;100.00;99472.33;109632;1251;64071;-74
2023/12/15 00:56:55;;;;;;;57.90;30.80;;;;;;;2.51;100.00;99479.40;109526;1251;59386;-74
2023/12/15 00:59:21;;;;;;;51.30;29.70;;;;;;;2.48;100.00;99487.17;109571;1251;59131;-74
2023/12/15 01:01:48;;;;;;;57.90;32.50;;;;;;;2.45;100.00;99493.58;109581;1251;66637;-74
2023/12/15 01:04:14;;;;;;;52.60;29.40;;;;;;;2.39;100.00;99501.61;109576;1251;61431;-74
2023/12/15 01:06:41;;;;;;;52.90;31.20;;;;;;;2.35;100.00;99506.61;109545;1251;64081;-73
2023/12/15 01:09:08;;;;;;;49.60;28.00;;;;;;;2.32;100.00;99505.47;109542;1251;58949;-74
2023/12/15 01:11:34;;;;;;;55.80;31.20;;;;;;;2.28;100.00;99509.25;109596;1251;59864;-74
2023/12/15 01:14:01;;;;;;;55.50;31.20;;;;;;;2.25;100.00;99511.08;109595;1251;65926;-73
2023/12/15 01:16:28;;;;;;;57.20;31.30;;;;;;;2.21;100.00;99515.39;109586;1251;61083;-73
2023/12/15 01:18:54;;;;;;;58.90;33.00;;;;;;;2.18;100.00;99519.14;109566;1251;65104;-73
2023/12/15 01:21:21;;;;;;;58.10;32.20;;;;;;;2.15;100.00;99517.98;109535;1251;59014;-73
2023/12/15 01:23:47;;;;;;;57.40;33.40;;;;;;;2.15;100.00;99525.88;109592;1251;59032;-73
2023/12/15 01:26:14;;;;;;;56.70;32.20;;;;;;;2.13;100.00;99528.70;109616;1251;67100;-73
2023/12/15 01:28:41;;;;;;;59.40;32.20;;;;;;;2.11;100.00;99531.05;109535;1251;60071;-73
2023/12/15 01:31:07;;;;;;;59.90;33.80;;;;;;;2.10;100.00;99534.05;109611;1251;65093;-74
2023/12/15 01:33:34;;;;;;;60.40;32.80;;;;;;;2.11;100.00;99535.95;109519;1251;58965;-73
2023/12/15 01:36:00;;;;;;;56.20;32.90;;;;;;;2.11;100.00;99542.27;109294;1251;59248;-74
2023/12/15 01:38:27;;;;;;;62.70;31.20;;;;;;;2.10;100.00;99546.48;109567;1251;66744;-74
2023/12/15 01:40:54;;;;;;;53.50;30.70;;;;;;;2.09;100.00;99549.84;109556;1251;61183;-73
2023/12/15 01:43:20;;;;;;;58.10;32.10;;;;;;;2.08;100.00;99551.98;109574;1251;65074;-73
2023/12/15 01:45:47;;;;;;;58.70;30.80;;;;;;;2.07;100.00;99554.10;109559;1251;59083;-73
2023/12/15 01:48:14;;;;;;;51.60;29.50;;;;;;;2.07;100.00;99557.77;109286;1251;58971;-72
2023/12/15 01:50:40;;;;;;;58.10;32.20;;;;;;;2.08;100.00;99558.47;109572;1251;66235;-72
2023/12/15 01:53:07;;;;;;;59.60;32.00;;;;;;;2.08;100.00;99556.36;109578;1251;61485;-73
2023/12/15 01:55:33;;;;;;;58.40;32.10;;;;;;;2.07;100.00;99560.24;109370;1251;65012;-74
2023/12/15 01:58:00;;;;;;;59.10;34.40;;;;;;;2.06;100.00;99561.32;109385;1254;59406;-74
2023/12/15 02:00:27;;;;;;;58.90;31.80;;;;;;;2.05;100.00;99564.32;109571;1251;59104;-74
2023/12/15 02:02:53;;;;;;;54.50;31.10;;;;;;;2.05;100.00;99567.11;109610;1251;67376;-74
2023/12/15 02:05:20;;;;;;;57.70;31.70;;;;;;;2.04;100.00;99570.65;109634;1251;61109;-74
2023/12/15 02:07:47;;;;;;;57.70;32.70;;;;;;;2.02;100.00;99572.64;109541;1251;64121;-74
2023/12/15 02:10:13;;;;;;;61.00;34.30;;;;;;;2.02;100.00;99582.45;109259;1251;59021;-74
2023/12/15 02:12:40;;;;;;;58.90;33.10;;;;;;;2.02;100.00;99593.30;109574;1251;58856;-73
2023/12/15 02:15:09;;;;;;;53.20;29.00;;;;;;;2.03;100.00;99598.20;109539;1251;66994;-74
2023/12/15 02:17:35;;;;;;;63.30;34.40;;;;;;;2.03;100.00;99604.52;109605;1251;61098;-73
2023/12/15 02:20:02;;;;;;;63.30;33.80;;;;;;;2.02;100.00;99609.09;109361;1251;64341;-73
2023/12/15 02:22:29;;;;;;;59.50;33.20;;;;;;;2.01;100.00;99617.15;109547;1251;59001;-73
2023/12/15 02:24:56;;;;;;;52.60;31.00;;;;;;;1.99;100.00;99619.31;109512;1251;59012;-75
2023/12/15 02:27:22;;;;;;;49.90;30.30;;;;;;;1.97;100.00;99621.27;109512;1251;67539;-74
2023/12/15 02:29:49;;;;;;;43.10;26.50;;;;;;;1.95;100.00;99619.93;109566;1251;61143;-73
2023/12/15 02:32:16;;;;;;;43.00;27.00;;;;;;;1.94;100.00;99619.42;109395;1251;65186;-74
2023/12/15 02:34:42;;;;;;;42.00;25.80;;;;;;;1.93;100.00;99621.02;109555;1251;58977;-73
2023/12/15 02:37:09;;;;;;;37.10;24.60;;;;;;;1.94;100.00;99628.70;109609;1251;59016;-73
2023/12/15 02:39:39;;;;;;;38.50;25.40;;;;;;;1.94;100.00;99628.89;109568;1251;66954;-75
2023/12/15 02:42:06;;;;;;;33.70;22.50;;;;;;;1.93;100.00;99633.62;109585;1251;60825;-74
2023/12/15 02:44:32;;;;;;;32.60;21.70;;;;;;;1.93;100.00;99636.27;109647;1251;65029;-74
2023/12/15 02:46:59;;;;;;;33.00;23.60;;;;;;;1.92;100.00;99642.77;109337;1251;59453;-73
2023/12/15 02:49:26;;;;;;;35.40;22.70;;;;;;;1.92;100.00;99647.85;109569;1251;58978;-74
2023/12/15 02:51:52;;;;;;;35.00;23.20;;;;;;;1.92;100.00;99656.61;109572;1251;67473;-74
2023/12/15 02:54:19;;;;;;;33.20;21.80;;;;;;;1.91;100.00;99664.36;109583;1251;70216;-74
2023/12/15 02:56:46;;;;;;;33.00;23.40;;;;;;;1.90;100.00;99665.25;109561;1251;64022;-74
2023/12/15 02:59:12;;;;;;;37.90;24.30;;;;;;;1.91;100.00;99670.65;109576;1251;59173;-74
2023/12/15 03:01:39;;;;;;;41.10;25.00;;;;;;;1.91;100.00;99674.17;109545;1251;59036;-74
2023/12/15 03:04:05;;;;;;;40.00;25.20;;;;;;;1.91;100.00;99680.11;109599;1251;67027;-74
2023/12/15 03:06:32;;;;;;;39.80;26.30;;;;;;;1.91;100.00;99687.48;109567;1251;61012;-74
2023/12/15 03:08:58;;;;;;;40.40;25.10;;;;;;;1.92;100.00;99694.45;109386;1251;64132;-74
2023/12/15 03:11:25;;;;;;;36.60;24.20;;;;;;;1.91;100.00;99698.33;109527;1251;59173;-74
2023/12/15 03:13:52;;;;;;;35.00;23.60;;;;;;;1.91;100.00;99704.98;108827;1251;1002096;-74
2023/12/15 03:16:22;;;;;;;35.50;24.80;;;;;;;1.91;100.00;99707.45;109561;1251;66231;-73
2023/12/15 03:18:48;;;;;;;39.30;24.50;;;;;;;1.90;100.00;99708.00;109640;1251;61004;-74
2023/12/15 03:21:15;;;;;;;31.80;21.90;;;;;;;1.89;100.00;99715.18;109574;1251;65178;-73
2023/12/15 03:23:41;;;;;;;26.90;18.80;;;;;;;1.87;100.00;99722.41;109353;1251;59034;-74
2023/12/15 03:26:08;;;;;;;30.30;20.40;;;;;;;1.85;100.00;99728.08;109575;1251;59019;-73
2023/12/15 03:28:34;;;;;;;22.30;17.00;;;;;;;1.83;100.00;99731.27;109597;1250;65979;-72
2023/12/15 03:31:01;;;;;;;21.30;16.90;;;;;;;1.81;100.00;99741.45;109593;1251;60264;-73
2023/12/15 03:33:34;;;;;;;20.00;15.30;;;;;;;1.79;100.00;99740.80;109542;1251;63997;-73
2023/12/15 03:36:01;;;;;;;20.80;16.90;;;;;;;1.78;100.00;99740.66;109600;1251;59144;-74
2023/12/15 03:38:28;;;;;;;21.70;15.40;;;;;;;1.76;100.00;99746.98;109599;1251;58949;-74
2023/12/15 03:40:54;;;;;;;21.70;16.40;;;;;;;1.74;100.00;99749.12;109435;1251;67055;-73
2023/12/15 03:43:21;;;;;;;24.70;18.10;;;;;;;1.73;100.00;99751.60;109572;1250;60085;-73
2023/12/15 03:45:48;;;;;;;24.10;17.40;;;;;;;1.72;100.00;99753.02;109549;1251;63930;-73
2023/12/15 03:48:14;;;;;;;27.60;19.70;;;;;;;1.72;100.00;99758.10;109557;1251;59284;-73
2023/12/15 03:50:41;;;;;;;25.30;20.10;;;;;;;1.72;100.00;99762.99;109306;1251;59116;-73
2023/12/15 03:53:08;;;;;;;24.20;19.50;;;;;;;1.73;100.00;99770.69;109557;1250;65940;-73
2023/12/15 03:55:34;;;;;;;20.90;15.90;;;;;;;1.72;100.00;99782.80;109486;1250;172409;-73
2023/12/15 03:58:01;;;;;;;18.60;14.70;;;;;;;1.67;100.00;99787.45;109521;1251;64097;-73
2023/12/15 04:00:28;;;;;;;19.50;15.20;;;;;;;1.61;100.00;99798.06;109541;1251;59332;-74
2023/12/15 04:02:55;;;;;;;18.90;13.00;;;;;;;1.55;100.00;99803.95;109590;1251;59143;-73
2023/12/15 04:05:22;;;;;;;17.80;14.00;;;;;;;1.48;100.00;99807.39;109436;1251;67011;-74
2023/12/15 04:07:48;;;;;;;22.40;15.70;;;;;;;1.43;100.00;99812.36;108818;1251;1006381;-73
2023/12/15 04:10:15;;;;;;;23.40;17.00;;;;;;;1.39;100.00;99819.29;109558;1251;65026;-74
2023/12/15 04:12:41;;;;;;;24.20;16.70;;;;;;;1.32;100.00;99819.38;109577;1251;58941;-73
2023/12/15 04:15:08;;;;;;;19.20;14.70;;;;;;;1.25;100.00;99826.34;109610;1251;59083;-73
2023/12/15 04:17:35;;;;;;;21.10;14.80;;;;;;;1.17;100.00;99834.52;109605;1250;67016;-73
2023/12/15 04:20:02;;;;;;;22.70;17.30;;;;;;;1.07;100.00;99832.90;109602;1251;60125;-73
2023/12/15 04:22:28;;;;;;;24.80;17.90;;;;;;;1.00;100.00;99838.24;109569;1251;63659;-73
2023/12/15 04:24:55;;;;;;;20.70;15.70;;;;;;;0.93;100.00;99843.59;109533;1251;58925;-73
2023/12/15 04:27:21;;;;;;;20.10;16.10;;;;;;;0.86;100.00;99849.66;109602;1251;59042;-73
2023/12/15 04:29:48;;;;;;;20.60;15.70;;;;;;;0.78;100.00;99855.52;109628;1251;67029;-73
2023/12/15 04:32:14;;;;;;;18.50;14.80;;;;;;;0.71;100.00;99858.60;109600;1251;61070;-73
2023/12/15 04:34:41;;;;;;;16.40;13.80;;;;;;;0.65;100.00;99861.46;109563;1251;64093;-73
2023/12/15 04:37:07;;;;;;;16.10;13.60;;;;;;;0.58;100.00;99865.41;109394;1251;59010;-73
2023/12/15 04:39:36;;;;;;;16.80;14.60;;;;;;;0.51;100.00;99871.77;109378;1251;59376;-73
2023/12/15 04:42:02;;;;;;;19.90;15.50;;;;;;;0.46;100.00;99878.67;109560;1255;66014;-73
2023/12/15 04:44:29;;;;;;;19.40;15.10;;;;;;;0.41;100.00;99882.90;109598;1251;61031;-73
2023/12/15 04:46:56;;;;;;;19.00;14.70;;;;;;;0.38;100.00;99885.05;109555;1251;64097;-73
2023/12/15 04:49:22;;;;;;;18.80;15.30;;;;;;;0.34;100.00;99890.50;109578;1251;59123;-73
2023/12/15 04:51:49;;;;;;;20.70;17.00;;;;;;;0.31;100.00;99896.64;109578;1251;59072;-73
2023/12/15 04:54:16;;;;;;;18.20;14.90;;;;;;;0.30;100.00;99900.70;109588;1251;66686;-73
2023/12/15 04:56:44;;;;;;;18.80;15.40;;;;;;;0.28;100.00;99903.86;109560;1251;61091;-72
2023/12/15 04:59:11;;;;;;;20.80;16.40;;;;;;;0.26;100.00;99913.66;109572;1251;65127;-74
2023/12/15 05:01:38;;;;;;;26.30;17.50;;;;;;;0.25;100.00;99921.89;109611;1251;59117;-73
2023/12/15 05:04:05;;;;;;;26.70;19.90;;;;;;;0.24;100.00;99926.27;109586;1251;59210;-72
2023/12/15 05:06:31;;;;;;;31.60;21.20;;;;;;;0.23;100.00;99929.08;109585;1251;66833;-73
2023/12/15 05:08:58;;;;;;;27.80;19.20;;;;;;;0.23;100.00;99940.42;109601;1251;69605;-72
2023/12/15 05:11:26;;;;;;;28.20;20.60;;;;;;;0.23;100.00;99939.73;109437;1251;65087;-74
2023/12/15 05:13:53;;;;;;;26.30;19.40;;;;;;;0.22;100.00;99939.91;109581;1250;59192;-73
2023/12/15 05:16:21;;;;;;;23.90;18.80;;;;;;;0.22;100.00;99943.77;109563;1251;61853;-74
2023/12/15 05:18:47;;;;;;;21.50;17.60;;;;;;;0.23;100.00;99944.11;109354;1251;66228;-73
2023/12/15 05:21:14;;;;;;;22.50;17.00;;;;;;;0.23;100.00;99951.08;109564;1251;59746;-74
2023/12/15 05:23:41;;;;;;;25.70;18.00;;;;;;;0.24;100.00;99957.02;109571;1251;64824;-74
2023/12/15 05:26:07;;;;;;;24.00;18.50;;;;;;;0.23;100.00;99961.92;109417;1251;59067;-74
2023/12/15 05:28:34;;;;;;;23.20;18.90;;;;;;;0.22;100.00;99966.14;109632;1251;59116;-74
2023/12/15 05:31:01;;;;;;;25.30;20.00;;;;;;;0.20;100.00;99972.27;109618;1251;67202;-73
2023/12/15 05:33:27;;;;;;;21.50;17.30;;;;;;;0.19;100.00;99975.25;109566;1251;61139;-73
2023/12/15 05:35:54;;;;;;;21.70;17.90;;;;;;;0.18;100.00;99983.64;109564;1251;64036;-74
2023/12/15 05:38:21;;;;;;;20.10;17.80;;;;;;;0.17;100.00;99988.36;109600;1251;58915;-73
2023/12/15 05:40:47;;;;;;;24.40;18.50;;;;;;;0.17;100.00;99992.04;109594;1251;59254;-74
2023/12/15 05:43:14;;;;;;;21.00;17.40;;;;;;;0.18;100.00;99992.89;109591;1250;66961;-74
2023/12/15 05:45:41;;;;;;;23.10;19.40;;;;;;;0.19;100.00;99995.69;109595;1251;61054;-74
2023/12/15 05:48:07;;;;;;;24.50;19.60;;;;;;;0.21;100.00;100000.92;109558;1251;65098;-72
2023/12/15 05:50:34;;;;;;;25.60;20.90;;;;;;;0.22;100.00;100005.45;109598;1251;59172;-74
2023/12/15 05:53:00;;;;;;;25.20;20.50;;;;;;;0.23;100.00;100013.48;109579;1251;58905;-74
2023/12/15 05:55:27;;;;;;;23.20;19.30;;;;;;;0.25;100.00;100017.83;109616;1250;67019;-74
2023/12/15 05:57:53;;;;;;;24.60;21.90;;;;;;;0.27;100.00;100022.89;109561;1251;61161;-74
2023/12/15 06:00:20;;;;;;;25.00;20.60;;;;;;;0.28;100.00;100021.30;109556;1251;65577;-74
2023/12/15 06:02:47;;;;;;;25.40;21.00;;;;;;;0.30;100.00;100021.98;109579;1251;59265;-74
2023/12/15 06:05:14;;;;;;;28.20;21.10;;;;;;;0.31;100.00;100026.00;109584;1251;59052;-73
2023/12/15 06:07:40;;;;;;;30.20;24.40;;;;;;;0.32;100.00;100031.06;109561;1251;64784;-73
2023/12/15 06:10:07;;;;;;;29.80;22.70;;;;;;;0.32;100.00;100032.11;109548;1251;61004;-74
2023/12/15 06:12:34;;;;;;;30.30;24.50;;;;;;;0.33;100.00;100036.48;109615;1251;64223;-73
2023/12/15 06:15:00;;;;;;;32.40;23.70;;;;;;;0.34;100.00;100043.64;109341;1251;59033;-73
2023/12/15 06:17:27;;;;;;;31.40;24.70;;;;;;;0.33;100.00;100047.65;109585;1251;59854;-74
2023/12/15 06:19:54;;;;;;;30.40;24.50;;;;;;;0.32;100.00;100051.69;109554;1253;67199;-72
2023/12/15 06:22:21;;;;;;;32.10;24.40;;;;;;;0.32;100.00;100056.41;109631;1251;61017;-73
2023/12/15 06:24:47;;;;;;;30.30;23.90;;;;;;;0.32;100.00;100058.69;109542;1251;64049;-74
2023/12/15 06:27:14;;;;;;;32.40;25.80;;;;;;;0.32;100.00;100069.52;109569;1251;58996;-74
2023/12/15 06:29:41;;;;;;;34.20;26.40;;;;;;;0.32;100.00;100068.98;109581;1251;58898;-74
2023/12/15 06:32:10;;;;;;;31.40;24.10;;;;;;;0.32;100.00;100064.27;109554;1251;67013;-74
2023/12/15 06:34:37;;;;;;;31.10;23.80;;;;;;;0.31;100.00;100071.97;109593;1251;61227;-73
2023/12/15 06:37:04;;;;;;;33.40;25.20;;;;;;;0.33;100.00;100078.75;109576;1251;65267;-73
2023/12/15 06:39:30;;;;;;;35.60;25.90;;;;;;;0.34;100.00;100082.77;109547;1251;59020;-74
2023/12/15 06:41:57;;;;;;;34.40;26.20;;;;;;;0.35;100.00;100085.58;109531;1251;58892;-74
2023/12/15 06:44:24;;;;;;;32.60;25.10;;;;;;;0.36;100.00;100080.48;109572;1251;65980;-75
2023/12/15 06:46:51;;;;;;;31.30;24.40;;;;;;;0.35;100.00;100078.75;109334;1251;61195;-73
2023/12/15 06:49:18;;;;;;;36.50;27.50;;;;;;;0.36;100.00;100076.30;109533;1251;65055;-74
2023/12/15 06:51:46;;;;;;;35.80;26.80;;;;;;;0.38;100.00;100079.42;108044;1251;1003174;-74
2023/12/15 06:54:12;;;;;;;37.20;29.30;;;;;;;0.39;100.00;100087.98;109558;1251;59063;-74
2023/12/15 06:56:39;;;;;;;37.60;26.90;;;;;;;0.40;100.00;100095.31;109626;1251;65990;-73
2023/12/15 06:59:06;;;;;;;38.10;29.70;;;;;;;0.40;100.00;100097.77;109562;1251;61121;-74
2023/12/15 07:01:32;;;;;;;38.60;28.40;;;;;;;0.40;100.00;100106.34;109543;1251;65112;-74
2023/12/15 07:03:59;;;;;;;37.80;28.20;;;;;;;0.40;100.00;100110.86;109554;1251;58974;-74
2023/12/15 07:06:25;;;;;;;66.20;37.00;;;;;;;0.42;100.00;100120.48;109595;1251;59011;-74
2023/12/15 07:08:54;;;;;;;70.20;38.30;;;;;;;0.43;100.00;100129.39;109555;1250;66014;-74
2023/12/15 07:11:21;;;;;;;55.30;36.40;;;;;;;0.43;100.00;100133.41;109566;1250;60115;-74
2023/12/15 07:13:48;;;;;;;52.60;34.00;;;;;;;0.43;100.00;100142.67;109567;1251;64980;-74
2023/12/15 07:16:15;;;;;;;49.90;35.20;;;;;;;0.44;100.00;100151.58;109288;1251;58927;-74
2023/12/15 07:18:42;;;;;;;49.50;35.20;;;;;;;0.46;100.00;100153.33;109570;1253;59438;-74
2023/12/15 07:21:09;;;;;;;44.20;32.20;;;;;;;0.47;100.00;100151.55;109587;1250;67030;-74
2023/12/15 07:23:36;;;;;;;41.60;31.70;;;;;;;0.49;100.00;100153.64;109563;1250;61189;-74
2023/12/15 07:26:04;;;;;;;46.20;34.40;;;;;;;0.52;100.00;100165.52;109542;1251;62749;-74
2023/12/15 07:28:30;;;;;;;42.50;30.80;;;;;;;0.55;100.00;100175.45;109380;1251;59027;-74
2023/12/15 07:30:57;;;;;;;49.40;34.60;;;;;;;0.59;100.00;100177.17;109540;1251;59112;-74
2023/12/15 07:33:23;;;;;;;52.00;35.30;;;;;;;0.64;100.00;100173.98;109415;1250;67146;-73
2023/12/15 07:35:50;;;;;;;41.20;32.10;;;;;;;0.70;100.00;100173.95;109437;1251;60107;-75
2023/12/15 07:38:17;;;;;;;45.00;32.50;;;;;;;0.78;100.00;100169.67;109538;1251;65112;-74
2023/12/15 07:40:44;;;;;;;44.90;34.70;;;;;;;0.86;100.00;100176.95;109554;1251;58963;-75
2023/12/15 07:43:11;;;;;;;38.60;29.10;;;;;;;0.93;100.00;100182.31;109576;1251;59041;-75
2023/12/15 07:45:37;;;;;;;37.10;29.70;;;;;;;0.95;100.00;100185.64;109557;1250;65997;-75
2023/12/15 07:48:04;;;;;;;43.00;29.60;;;;;;;0.95;100.00;100190.70;109606;1251;61615;-75
2023/12/15 07:50:31;;;;;;;43.30;31.40;;;;;;;0.95;100.00;100193.16;109548;1251;65211;-75
2023/12/15 07:52:57;;;;;;;41.40;32.10;;;;;;;0.97;100.00;100196.12;109576;1251;59175;-75
2023/12/15 07:55:24;;;;;;;42.90;30.80;;;;;;;0.98;100.00;100203.11;109604;1251;59034;-74
2023/12/15 07:57:50;;;;;;;40.10;29.30;;;;;;;0.99;100.00;100204.32;109602;1251;66028;-76
2023/12/15 08:00:17;;;;;;;41.00;31.00;;;;;;;1.00;100.00;100210.27;109675;1250;61513;-74
2023/12/15 08:02:44;;;;;;;42.60;30.90;;;;;;;0.98;100.00;100208.19;109587;1251;65319;-74
2023/12/15 08:05:11;;;;;;;43.50;30.50;;;;;;;0.97;100.00;100212.21;109546;1251;58918;-75
2023/12/15 08:07:37;;;;;;;43.70;31.20;;;;;;;0.94;100.00;100223.95;109566;1251;59545;-73
2023/12/15 08:10:04;;;;;;;42.80;32.20;;;;;;;0.92;100.00;100231.14;109520;1251;66987;-74
2023/12/15 08:12:31;;;;;;;52.80;34.40;;;;;;;0.94;100.00;100226.05;109354;1251;60353;-74
2023/12/15 08:14:57;;;;;;;44.70;31.40;;;;;;;0.97;100.00;100227.98;109576;1251;65026;-73
2023/12/15 08:17:24;;;;;;;50.80;34.80;;;;;;;0.99;100.00;100233.55;109596;1251;59027;-75
2023/12/15 08:19:51;;;;;;;44.20;32.30;;;;;;;0.99;100.00;100226.71;109595;1251;58955;-74
2023/12/15 08:22:18;;;;;;;43.30;32.00;;;;;;;1.00;100.00;100228.81;109556;1251;67222;-74
2023/12/15 08:24:45;;;;;;;42.80;31.10;;;;;;;1.00;100.00;100235.81;109587;1251;60036;-74
2023/12/15 08:27:12;;;;;;;47.00;33.60;;;;;;;1.01;100.00;100238.77;109536;1251;65048;-74
2023/12/15 08:29:41;;;;;;;45.20;32.30;;;;;;;1.00;100.00;100238.60;109614;1251;58962;-74
2023/12/15 08:32:08;;;;;;;42.50;31.60;;;;;;;1.02;100.00;100237.02;109551;1250;58861;-73
2023/12/15 08:34:35;;;;;;;43.40;31.20;;;;;;;1.06;100.00;100234.36;109382;1250;66037;-72
2023/12/15 08:37:01;;;;;;;41.90;29.80;;;;;;;1.09;100.00;100236.42;109547;1251;59991;-74
2023/12/15 08:39:28;;;;;;;39.40;29.00;;;;;;;1.12;100.00;100235.88;109573;1251;65061;-73
2023/12/15 08:41:55;;;;;;;44.00;29.90;;;;;;;1.16;100.00;100239.88;109584;1251;59051;-74
2023/12/15 08:44:22;;;;;;;42.60;29.80;;;;;;;1.23;100.00;100250.50;109574;1251;59084;-73
2023/12/15 08:46:48;;;;;;;42.00;31.00;;;;;;;1.30;100.00;100259.88;109533;1251;66068;-73
2023/12/15 08:49:15;;;;;;;41.40;29.00;;;;;;;1.37;100.00;100262.45;109587;1251;61087;-74
2023/12/15 08:51:41;;;;;;;40.30;28.80;;;;;;;1.43;100.00;100267.13;109587;1251;65265;-74
2023/12/15 08:54:08;;;;;;;45.40;31.50;;;;;;;1.47;100.00;100268.13;109563;1251;58999;-74
2023/12/15 08:56:34;;;;;;;44.40;32.30;;;;;;;1.52;100.00;100274.73;109639;1251;58954;-74
2023/12/15 08:59:01;;;;;;;47.80;34.40;;;;;;;1.59;100.00;100270.84;109608;1250;67172;-74
2023/12/15 09:01:27;;;;;;;48.20;34.60;;;;;;;1.63;100.00;100267.29;109529;1251;60303;-73
2023/12/15 09:03:54;;;;;;;44.80;33.00;;;;;;;1.66;100.00;100274.95;109278;1251;64049;-74
2023/12/15 09:06:21;;;;;;;45.10;31.40;;;;;;;1.72;100.00;100276.48;109552;1251;58951;-74
2023/12/15 09:08:47;;;;;;;46.50;34.40;;;;;;;1.80;100.00;100278.14;109542;1251;59023;-74
2023/12/15 09:11:15;;;;;;;47.40;34.80;;;;;;;1.90;100.00;100281.19;109565;1251;66047;-73
2023/12/15 09:13:41;;;;;;;46.80;33.20;;;;;;;1.99;100.00;100285.12;109600;1251;60043;-73
2023/12/15 09:16:08;;;;;;;48.00;35.10;;;;;;;2.11;100.00;100286.04;109593;1251;65125;-75
2023/12/15 09:18:35;;;;;;;45.80;33.80;;;;;;;2.23;100.00;100287.29;109393;1251;59038;-72
2023/12/15 09:21:01;;;;;;;42.20;32.10;;;;;;;2.35;100.00;100291.52;109582;1251;58888;-74
2023/12/15 09:23:28;;;;;;;49.70;35.50;;;;;;;2.48;100.00;100296.29;109565;1251;67147;-74
2023/12/15 09:25:55;;;;;;;46.60;33.90;;;;;;;2.57;100.00;100295.80;109614;1251;59092;-74
2023/12/15 09:28:21;;;;;;;41.80;31.00;;;;;;;2.68;100.00;100299.52;109567;1251;65070;-74
2023/12/15 09:30:48;;;;;;;43.50;30.60;;;;;;;2.78;100.00;100310.09;109544;1251;58945;-75
2023/12/15 09:33:15;;;;;;;39.00;26.60;;;;;;;2.85;100.00;100309.98;109573;1251;59058;-74
2023/12/15 09:35:41;;;;;;;36.40;26.20;;;;;;;2.89;100.00;100312.21;109593;1251;66002;-73
2023/12/15 09:38:08;;;;;;;42.40;29.20;;;;;;;2.83;100.00;100321.41;109616;1250;60106;-74
2023/12/15 09:40:34;;;;;;;40.10;27.00;;;;;;;2.79;100.00;100324.63;109534;1251;65226;-74
2023/12/15 09:43:01;;;;;;;37.40;26.90;;;;;;;2.75;100.00;100321.18;109579;1251;58903;-74
2023/12/15 09:45:30;;;;;;;38.50;26.00;;;;;;;2.71;100.00;100321.06;109532;1254;58872;-75
2023/12/15 09:47:58;;;;;;;40.40;28.40;;;;;;;2.67;100.00;100320.59;109554;1251;65944;-74
2023/12/15 09:50:27;;;;;;;39.70;28.40;;;;;;;2.65;100.00;100320.79;109577;1251;60030;-74
2023/12/15 09:52:55;;;;;;;46.70;32.00;;;;;;;2.65;100.00;100320.61;109574;1251;64352;-74
2023/12/15 09:55:22;;;;;;;37.90;28.40;;;;;;;2.65;100.00;100317.80;109550;1251;59030;-74
2023/12/15 09:57:49;;;;;;;38.80;27.20;;;;;;;2.67;100.00;100318.31;109593;1253;59049;-74
2023/12/15 10:00:16;;;;;;;37.90;28.70;;;;;;;2.67;100.00;100317.26;109558;1255;67309;-74
2023/12/15 10:02:43;;;;;;;39.40;28.10;;;;;;;2.67;100.00;100314.27;109588;1250;60076;-74
2023/12/15 10:05:10;;;;;;;33.30;25.40;;;;;;;2.68;100.00;100310.57;109388;1251;65055;-74
2023/12/15 10:07:37;;;;;;;35.30;25.90;;;;;;;2.72;100.00;100317.72;109562;1251;58979;-74
2023/12/15 10:10:04;;;;;;;36.00;26.30;;;;;;;2.74;100.00;100322.77;109613;1253;59061;-74
2023/12/15 10:12:31;;;;;;;42.10;30.60;;;;;;;2.74;100.00;100325.21;109557;1251;67047;-74
2023/12/15 10:14:57;;;;;;;30.80;22.50;;;;;;;2.76;100.00;100329.23;109596;1251;58980;-74
2023/12/15 10:17:24;;;;;;;33.30;23.80;;;;;;;2.76;100.00;100338.73;109586;1251;64160;-74
2023/12/15 10:20:05;;;;;;;31.10;23.40;;;;;;;2.78;100.00;100339.39;109280;1251;59007;-74
2023/12/15 10:22:31;;;;;;;32.70;24.50;;;;;;;2.82;100.00;100343.36;109493;1251;58973;-74
2023/12/15 10:24:58;;;;;;;29.40;23.20;;;;;;;2.84;100.00;100343.87;109580;1251;67071;-74
2023/12/15 10:27:24;;;;;;;28.70;20.70;;;;;;;2.89;100.00;100342.76;109578;1251;61037;-74
2023/12/15 10:29:52;;;;;;;30.40;24.30;;;;;;;2.92;100.00;100341.48;109601;1251;64053;-75
2023/12/15 10:32:19;;;;;;;32.90;25.20;;;;;;;2.93;100.00;100340.77;109574;1251;59081;-74
2023/12/15 10:34:46;;;;;;;31.30;24.70;;;;;;;2.94;100.00;100346.71;109588;1251;58869;-74
2023/12/15 10:37:13;;;;;;;34.00;24.80;;;;;;;2.95;100.00;100347.23;109547;1251;67011;-74
2023/12/15 10:39:39;;;;;;;30.10;23.10;;;;;;;3.00;100.00;100347.69;109611;1251;60099;-74
2023/12/15 10:42:07;;;;;;;30.10;22.00;;;;;;;3.01;100.00;100349.95;109565;1251;65023;-74
2023/12/15 10:44:35;;;;;;;28.40;20.70;;;;;;;3.02;100.00;100347.48;109583;1251;58989;-73
2023/12/15 10:47:04;;;;;;;26.90;21.10;;;;;;;3.03;100.00;100349.59;109561;1251;59287;-73
2023/12/15 10:49:31;;;;;;;29.40;23.10;;;;;;;3.03;100.00;100350.80;109372;1250;67076;-74
2023/12/15 10:51:59;;;;;;;32.10;22.60;;;;;;;3.05;100.00;100347.09;109566;1251;60245;-73
2023/12/15 10:54:27;;;;;;;30.20;21.70;;;;;;;3.07;100.00;100345.64;109550;1251;64090;-74
2023/12/15 10:56:54;;;;;;;30.90;23.30;;;;;;;3.11;100.00;100352.27;109526;1251;59005;-74
2023/12/15 10:59:20;;;;;;;28.90;22.30;;;;;;;3.12;100.00;100355.77;109614;1251;59002;-74
2023/12/15 11:01:48;;;;;;;30.10;22.30;;;;;;;3.10;100.00;100359.84;109601;1251;67091;-74